createdAt,value
2016-02-11T00:00:01.584Z,70.47
2016-02-11T00:01:01.555Z,70.37
2016-02-11T00:02:01.557Z,70.09
2016-02-11T00:03:01.560Z,70.37
2016-02-11T00:04:01.548Z,70.28
2016-02-11T00:05:01.551Z,70.56
2016-02-11T00:06:01.554Z,70.84
2016-02-11T00:07:01.557Z,70.37
2016-02-11T00:08:01.543Z,70.24
2016-02-11T00:09:01.530Z,70.56
2016-02-11T00:10:01.533Z,70.47
2016-02-11T00:11:01.536Z,70.47
2016-02-11T00:12:01.523Z,70.37
2016-02-11T00:13:01.541Z,70.47
2016-02-11T00:14:01.529Z,70.28
2016-02-11T00:15:01.517Z,70.28
2016-02-11T00:16:01.520Z,70.37
2016-02-11T00:17:01.508Z,70.75
2016-02-11T00:18:01.511Z,70.84
2016-02-11T00:19:01.498Z,71.03
2016-02-11T00:20:01.516Z,70.9
2016-02-11T00:21:01.519Z,71.32
2016-02-11T00:22:01.491Z,71.32
2016-02-11T00:23:01.494Z,71.32
2016-02-11T00:24:01.482Z,71.41
2016-02-11T00:25:01.486Z,71.51
2016-02-11T00:26:01.473Z,70.84
2016-02-11T00:27:01.476Z,71.22
2016-02-11T00:28:01.463Z,71.22
2016-02-11T00:29:01.465Z,71.13
2016-02-11T00:30:01.468Z,71.6
2016-02-11T00:31:01.299Z,71.19
2016-02-11T00:32:01.444Z,72.08
2016-02-11T00:33:01.458Z,71.89
2016-02-11T00:34:01.492Z,71.57
2016-02-11T00:35:01.452Z,71.89
2016-02-11T00:36:01.432Z,71.32
2016-02-11T00:37:01.435Z,71.51
2016-02-11T00:38:01.422Z,71.89
2016-02-11T00:39:01.425Z,71.32
2016-02-11T00:40:01.413Z,71.13
2016-02-11T00:41:01.400Z,72.14
2016-02-11T00:42:01.418Z,71.85
2016-02-11T00:43:01.407Z,72.17
2016-02-11T00:44:01.394Z,71.98
2016-02-11T00:45:01.396Z,71.76
2016-02-11T00:46:01.415Z,72.08
2016-02-11T00:47:01.385Z,71.89
2016-02-11T00:48:01.389Z,71.8
2016-02-11T00:49:01.391Z,72.17
2016-02-11T00:50:01.379Z,72.08
2016-02-11T00:51:01.384Z,72.36
2016-02-11T00:52:01.386Z,72.36
2016-02-11T00:53:01.373Z,72.27
2016-02-11T00:54:01.360Z,71.98
2016-02-11T00:55:01.363Z,72.27
2016-02-11T00:56:01.398Z,72.04
2016-02-11T00:57:01.354Z,71.98
2016-02-11T00:58:01.371Z,72.36
2016-02-11T00:59:01.343Z,72.08
2016-02-11T01:00:01.331Z,72.08
2016-02-11T01:01:01.350Z,71.98
2016-02-11T01:02:01.337Z,72.27
2016-02-11T01:03:01.339Z,72.74
2016-02-11T01:04:01.327Z,72.08
2016-02-11T01:05:01.317Z,72.45
2016-02-11T01:06:01.320Z,71.98
2016-02-11T01:07:01.307Z,72.14
2016-02-11T01:08:01.310Z,72.17
2016-02-11T01:09:01.313Z,72.74
2016-02-11T01:10:01.301Z,72.55
2016-02-11T01:11:01.287Z,72.64
2016-02-11T01:12:01.290Z,72.64
2016-02-11T01:13:01.293Z,72.64
2016-02-11T01:14:01.280Z,72.42
2016-02-11T01:15:01.283Z,72.55
2016-02-11T01:16:01.271Z,73.12
2016-02-11T01:17:01.273Z,72.8
2016-02-11T01:18:01.260Z,72.61
2016-02-11T01:19:01.278Z,72.71
2016-02-11T01:20:01.265Z,73.08
2016-02-11T01:21:01.331Z,72.45
2016-02-11T01:22:01.271Z,73.08
2016-02-11T01:23:01.259Z,72.64
2016-02-11T01:24:01.246Z,72.99
2016-02-11T01:25:01.249Z,73.18
2016-02-11T01:26:01.334Z,73.12
2016-02-11T01:27:01.243Z,72.64
2016-02-11T01:28:01.230Z,72.84
2016-02-11T01:29:01.217Z,72.99
2016-02-11T01:30:01.219Z,72.93
2016-02-11T01:31:01.238Z,73.08
2016-02-11T01:32:01.225Z,72.71
2016-02-11T01:33:01.230Z,72.8
2016-02-11T01:34:01.218Z,72.52
2016-02-11T01:35:01.205Z,72.71
2016-02-11T01:36:01.194Z,72.64
2016-02-11T01:37:01.196Z,72.99
2016-02-11T01:38:01.211Z,72.52
2016-02-11T01:39:01.182Z,72.71
2016-02-11T01:40:01.185Z,72.61
2016-02-11T01:41:01.172Z,72.93
2016-02-11T01:42:01.159Z,72.8
2016-02-11T01:43:01.161Z,73.75
2016-02-11T01:44:01.180Z,72.84
2016-02-11T01:45:01.151Z,72.71
2016-02-11T01:46:01.186Z,73.08
2016-02-11T01:47:01.157Z,72.93
2016-02-11T01:48:01.160Z,73.08
2016-02-11T01:49:01.162Z,72.71
2016-02-11T01:50:01.133Z,72.93
2016-02-11T01:51:01.151Z,73.08
2016-02-11T01:52:01.124Z,72.74
2016-02-11T01:53:01.126Z,72.84
2016-02-11T01:54:01.144Z,73.03
2016-02-11T01:55:01.115Z,72.84
2016-02-11T01:56:01.134Z,73.03
2016-02-11T01:57:01.107Z,73.03
2016-02-11T01:58:01.125Z,72.84
2016-02-11T01:59:01.097Z,72.45
2016-02-11T02:00:01.099Z,72.64
2016-02-11T02:01:01.085Z,72.55
2016-02-11T02:02:01.105Z,73.03
2016-02-11T02:03:01.092Z,73.08
2016-02-11T02:04:00.939Z,72.64
2016-02-11T02:05:01.083Z,73.03
2016-02-11T02:06:01.085Z,72.55
2016-02-11T02:07:01.072Z,73.12
2016-02-11T02:08:01.075Z,72.64
2016-02-11T02:09:01.078Z,72.55
2016-02-11T02:10:01.064Z,73.03
2016-02-11T02:11:01.052Z,72.64
2016-02-11T02:12:01.054Z,73.22
2016-02-11T02:13:01.057Z,72.74
2016-02-11T02:14:01.043Z,72.84
2016-02-11T02:15:01.046Z,73.12
2016-02-11T02:16:01.049Z,72.36
2016-02-11T02:17:01.037Z,72.45
2016-02-11T02:18:01.025Z,72.42
2016-02-11T02:19:01.043Z,72.55
2016-02-11T02:20:01.030Z,73.08
2016-02-11T02:21:01.033Z,72.36
2016-02-11T02:22:01.035Z,72.14
2016-02-11T02:23:01.022Z,72.17
2016-02-11T02:24:01.041Z,71.89
2016-02-11T02:25:01.076Z,71.95
2016-02-11T02:26:01.016Z,72.27
2016-02-11T02:27:01.003Z,71.89
2016-02-11T02:28:00.990Z,71.98
2016-02-11T02:29:00.993Z,72.08
2016-02-11T02:30:00.996Z,72.04
2016-02-11T02:31:00.984Z,72.08
2016-02-11T02:32:00.986Z,72.27
2016-02-11T02:33:00.973Z,71.98
2016-02-11T02:34:00.976Z,72.08
2016-02-11T02:35:00.963Z,72.08
2016-02-11T02:36:00.981Z,71.8
2016-02-11T02:37:00.968Z,71.7
2016-02-11T02:38:00.970Z,72.36
2016-02-11T02:39:00.958Z,71.8
2016-02-11T02:40:00.945Z,72.14
2016-02-11T02:41:00.964Z,71.89
2016-02-11T02:42:00.935Z,72.04
2016-02-11T02:43:00.937Z,72.08
2016-02-11T02:44:00.924Z,72.23
2016-02-11T02:45:00.927Z,71.8
2016-02-11T02:46:00.930Z,72.08
2016-02-11T02:47:00.933Z,71.98
2016-02-11T02:48:00.920Z,72.08
2016-02-11T02:49:00.922Z,72.17
2016-02-11T02:50:00.910Z,72.08
2016-02-11T02:51:00.912Z,72.27
2016-02-11T02:52:00.915Z,72.08
2016-02-11T02:53:00.901Z,72.08
2016-02-11T02:54:00.907Z,71.66
2016-02-11T02:55:00.895Z,72.27
2016-02-11T02:56:00.930Z,72.14
2016-02-11T02:57:00.886Z,71.98
2016-02-11T02:58:00.872Z,72.33
2016-02-11T02:59:00.879Z,72.17
2016-02-11T03:00:00.881Z,72.36
2016-02-11T03:01:00.884Z,72.08
2016-02-11T03:02:00.871Z,72.36
2016-02-11T03:03:00.860Z,72.08
2016-02-11T03:04:00.868Z,72.08
2016-02-11T03:05:00.886Z,72.04
2016-02-11T03:06:00.843Z,72.17
2016-02-11T03:07:00.862Z,72.27
2016-02-11T03:08:00.848Z,72.08
2016-02-11T03:09:00.836Z,71.7
2016-02-11T03:10:00.839Z,72.08
2016-02-11T03:11:00.841Z,71.89
2016-02-11T03:12:00.828Z,71.98
2016-02-11T03:13:00.862Z,72.17
2016-02-11T03:14:00.817Z,72.17
2016-02-11T03:15:00.821Z,72.04
2016-02-11T03:16:00.839Z,72.04
2016-02-11T03:17:00.843Z,72.08
2016-02-11T03:18:00.803Z,72.17
2016-02-11T03:19:00.806Z,71.98
2016-02-11T03:20:00.792Z,71.98
2016-02-11T03:21:00.796Z,72.45
2016-02-11T03:22:00.814Z,71.8
2016-02-11T03:23:00.802Z,71.7
2016-02-11T03:24:00.776Z,71.89
2016-02-11T03:25:00.795Z,71.6
2016-02-11T03:26:00.765Z,71.7
2016-02-11T03:27:00.768Z,71.7
2016-02-11T03:28:00.771Z,71.13
2016-02-11T03:29:00.760Z,71.41
2016-02-11T03:30:00.777Z,71.7
2016-02-11T03:31:00.780Z,71.41
2016-02-11T03:32:00.767Z,71.7
2016-02-11T03:33:00.754Z,71.41
2016-02-11T03:34:00.742Z,71.41
2016-02-11T03:35:00.745Z,70.94
2016-02-11T03:36:00.731Z,71.22
2016-02-11T03:37:00.735Z,71.09
2016-02-11T03:38:00.738Z,71.32
2016-02-11T03:39:00.741Z,71.32
2016-02-11T03:40:00.727Z,71.51
2016-02-11T03:41:00.714Z,71.32
2016-02-11T03:42:00.717Z,71.32
2016-02-11T03:43:00.705Z,71.32
2016-02-11T03:44:00.738Z,70.65
2016-02-11T03:45:00.710Z,71.32
2016-02-11T03:46:00.696Z,70.94
2016-02-11T03:47:00.715Z,70.94
2016-02-11T03:48:00.702Z,71.7
2016-02-11T03:49:00.690Z,70.94
2016-02-11T03:50:00.692Z,70.94
2016-02-11T03:51:00.679Z,71.13
2016-02-11T03:52:00.681Z,70.75
2016-02-11T03:53:00.684Z,71.03
2016-02-11T03:54:00.672Z,70.94
2016-02-11T03:55:00.675Z,71.03
2016-02-11T03:56:00.686Z,70.94
2016-02-11T03:57:00.658Z,70.84
2016-02-11T03:58:00.660Z,70.84
2016-02-11T03:59:00.680Z,70.84
2016-02-11T04:00:00.666Z,71.03
2016-02-11T04:01:00.653Z,71.03
2016-02-11T04:02:00.655Z,70.56
2016-02-11T04:03:00.644Z,71.22
2016-02-11T04:04:00.677Z,70.75
2016-02-11T04:05:00.633Z,70.84
2016-02-11T04:06:00.636Z,71.03
2016-02-11T04:07:00.639Z,70.37
2016-02-11T04:08:00.611Z,71.03
2016-02-11T04:09:00.615Z,70.65
2016-02-11T04:10:00.617Z,70.94
2016-02-11T04:11:00.729Z,71.03
2016-02-11T04:12:00.606Z,70.84
2016-02-11T04:13:00.609Z,70.56
2016-02-11T04:14:00.708Z,70.28
2016-02-11T04:15:00.602Z,70.28
2016-02-11T04:16:00.604Z,70.18
2016-02-11T04:17:00.591Z,70.18
2016-02-11T04:18:00.593Z,70.37
2016-02-11T04:19:00.580Z,70.47
2016-02-11T04:20:00.583Z,70.37
2016-02-11T04:21:00.586Z,70.47
2016-02-11T04:22:00.574Z,70.28
2016-02-11T04:23:00.577Z,70.37
2016-02-11T04:24:00.564Z,70.47
2016-02-11T04:25:00.566Z,70.56
2016-02-11T04:26:00.553Z,70.47
2016-02-11T04:27:00.561Z,70.28
2016-02-11T04:28:00.548Z,70.37
2016-02-11T04:29:00.551Z,70.28
2016-02-11T04:30:00.538Z,70.56
2016-02-11T04:31:00.556Z,70.37
2016-02-11T04:32:00.527Z,70.37
2016-02-11T04:33:00.530Z,70.56
2016-02-11T04:34:00.517Z,70.37
2016-02-11T04:35:00.521Z,70.09
2016-02-11T04:36:00.632Z,70.47
2016-02-11T04:37:00.510Z,70.65
2016-02-11T04:38:00.512Z,70.09
2016-02-11T04:39:00.501Z,70.56
2016-02-11T04:40:00.505Z,70.37
2016-02-11T04:41:00.508Z,70.65
2016-02-11T04:42:00.494Z,70.37
2016-02-11T04:43:00.481Z,70.47
2016-02-11T04:44:00.499Z,70.47
2016-02-11T04:45:00.486Z,69.96
2016-02-11T04:46:00.489Z,70.05
2016-02-11T04:47:00.477Z,70.34
2016-02-11T04:48:00.465Z,70.09
2016-02-11T04:49:00.468Z,69.71
2016-02-11T04:50:00.471Z,70.09
2016-02-11T04:51:00.457Z,70.18
2016-02-11T04:52:00.445Z,70.18
2016-02-11T04:53:00.447Z,70.09
2016-02-11T04:54:00.309Z,70.18
2016-02-11T04:55:00.453Z,70.24
2016-02-11T04:56:00.457Z,69.77
2016-02-11T04:57:00.443Z,69.8
2016-02-11T04:58:00.434Z,69.9
2016-02-11T04:59:00.423Z,70.09
2016-02-11T05:00:00.426Z,69.8
2016-02-11T05:01:00.429Z,69.9
2016-02-11T05:02:00.432Z,69.67
2016-02-11T05:03:00.402Z,69.67
2016-02-11T05:04:00.405Z,69.9
2016-02-11T05:05:00.408Z,69.71
2016-02-11T05:06:00.412Z,69.8
2016-02-11T05:07:00.399Z,69.67
2016-02-11T05:08:00.403Z,70.09
2016-02-11T05:09:00.389Z,69.71
2016-02-11T05:10:00.377Z,69.57
2016-02-11T05:11:00.380Z,69.8
2016-02-11T05:12:00.383Z,69.61
2016-02-11T05:13:00.369Z,69.42
2016-02-11T05:14:00.372Z,69.48
2016-02-11T05:15:00.374Z,69.61
2016-02-11T05:16:00.362Z,69.61
2016-02-11T05:17:00.349Z,69.77
2016-02-11T05:18:00.352Z,69.52
2016-02-11T05:19:00.354Z,69.71
2016-02-11T05:20:00.357Z,69.61
2016-02-11T05:21:00.327Z,69.61
2016-02-11T05:22:00.347Z,69.04
2016-02-11T05:23:00.333Z,69.61
2016-02-11T05:24:00.336Z,68.76
2016-02-11T05:25:00.338Z,69.23
2016-02-11T05:26:00.321Z,68.85
2016-02-11T05:27:00.323Z,69.13
2016-02-11T05:28:00.326Z,69.13
2016-02-11T05:29:00.312Z,69.1
2016-02-11T05:30:00.315Z,69.01
2016-02-11T05:31:00.302Z,68.95
2016-02-11T05:32:00.305Z,68.95
2016-02-11T05:33:00.309Z,68.95
2016-02-11T05:34:00.296Z,69.2
2016-02-11T05:35:00.314Z,68.76
2016-02-11T05:36:00.286Z,68.73
2016-02-11T05:37:00.320Z,68.76
2016-02-11T05:38:00.290Z,68.66
2016-02-11T05:39:00.278Z,68.76
2016-02-11T05:40:00.265Z,68.76
2016-02-11T05:41:00.253Z,68.29
2016-02-11T05:42:00.256Z,68.76
2016-02-11T05:43:00.274Z,68.76
2016-02-11T05:44:00.260Z,68.76
2016-02-11T05:45:00.263Z,68.35
2016-02-11T05:46:00.251Z,67.9
2016-02-11T05:47:00.254Z,67.81
2016-02-11T05:48:00.256Z,67.9
2016-02-11T05:49:00.243Z,68.1
2016-02-11T05:50:00.263Z,67.9
2016-02-11T05:51:00.219Z,68.06
2016-02-11T05:52:00.221Z,68.44
2016-02-11T05:53:00.224Z,68.15
2016-02-11T05:54:00.216Z,68.15
2016-02-11T05:55:00.203Z,68.35
2016-02-11T05:56:00.221Z,68.35
2016-02-11T05:57:00.209Z,68.15
2016-02-11T05:58:00.259Z,68.15
2016-02-11T05:59:00.216Z,68.35
2016-02-11T06:00:00.187Z,68.44
2016-02-11T06:01:00.190Z,68.25
2016-02-11T06:02:00.177Z,68.06
2016-02-11T06:03:00.195Z,68.35
2016-02-11T06:04:00.166Z,68.25
2016-02-11T06:05:00.169Z,68.15
2016-02-11T06:06:00.156Z,68.15
2016-02-11T06:07:00.364Z,68.35
2016-02-11T06:08:00.163Z,68.63
2016-02-11T06:09:00.151Z,68.44
2016-02-11T06:10:00.138Z,68.63
2016-02-11T06:11:00.157Z,68.82
2016-02-11T06:12:00.131Z,68.54
2016-02-11T06:13:00.166Z,68.63
2016-02-11T06:14:00.092Z,68.35
2016-02-11T06:15:00.067Z,68.54
2016-02-11T06:16:00.040Z,68.73
2016-02-11T06:17:00.054Z,68.63
2016-02-11T06:18:00.021Z,69.1
2016-02-11T06:19:00.019Z,69.01
2016-02-11T06:20:00.017Z,69.1
2016-02-11T06:20:59.998Z,69.1
2016-02-11T06:22:00.046Z,69.2
2016-02-11T06:23:00.000Z,69.77
2016-02-11T06:23:59.984Z,69.77
2016-02-11T06:24:59.986Z,69.48
2016-02-11T06:25:59.972Z,69.2
2016-02-11T06:26:59.976Z,69.38
2016-02-11T06:27:59.962Z,69.2
2016-02-11T06:28:59.948Z,69.86
2016-02-11T06:29:59.949Z,69.67
2016-02-11T06:30:59.937Z,70.15
2016-02-11T06:31:59.940Z,70.05
2016-02-11T06:32:59.926Z,70.53
2016-02-11T06:33:59.928Z,70.53
2016-02-11T06:34:59.916Z,70.43
2016-02-11T06:35:59.920Z,70.53
2016-02-11T06:36:59.922Z,70.43
2016-02-11T06:37:59.909Z,70.24
2016-02-11T06:38:59.896Z,70.34
2016-02-11T06:39:59.914Z,70.43
2016-02-11T06:40:59.902Z,70.34
2016-02-11T06:41:59.889Z,70.72
2016-02-11T06:42:59.892Z,70.24
2016-02-11T06:43:59.911Z,70.53
2016-02-11T06:44:59.883Z,70.81
2016-02-11T06:45:59.870Z,70.24
2016-02-11T06:46:59.872Z,70.34
2016-02-11T06:47:59.875Z,70.24
2016-02-11T06:48:59.863Z,70.05
2016-02-11T06:49:59.849Z,70.62
2016-02-11T06:50:59.853Z,70.62
2016-02-11T06:51:59.856Z,70.53
2016-02-11T06:52:59.843Z,70.62
2016-02-11T06:53:59.837Z,70.62
2016-02-11T06:54:59.840Z,70.43
2016-02-11T06:55:59.857Z,70.15
2016-02-11T06:56:59.828Z,70.05
2016-02-11T06:57:59.816Z,70.15
2016-02-11T06:58:59.818Z,70.05
2016-02-11T06:59:59.649Z,69.96
2016-02-11T07:00:59.810Z,69.86
2016-02-11T07:01:59.797Z,69.48
2016-02-11T07:02:59.800Z,69.77
2016-02-11T07:03:59.646Z,69.48
2016-02-11T07:04:59.805Z,69.38
2016-02-11T07:05:59.777Z,69.57
2016-02-11T07:06:59.794Z,69.2
2016-02-11T07:07:59.766Z,68.91
2016-02-11T07:08:59.786Z,69.01
2016-02-11T07:09:59.773Z,68.73
2016-02-11T07:10:59.760Z,68.73
2016-02-11T07:11:59.747Z,68.82
2016-02-11T07:12:59.749Z,68.63
2016-02-11T07:13:59.769Z,68.66
2016-02-11T07:14:59.739Z,68.76
2016-02-11T07:15:59.742Z,68.25
2016-02-11T07:16:59.744Z,68.38
2016-02-11T07:17:59.747Z,68.38
2016-02-11T07:18:59.735Z,68.06
2016-02-11T07:19:59.721Z,67.49
2016-02-11T07:20:59.724Z,68
2016-02-11T07:22:00.211Z,67.81
2016-02-11T07:22:59.719Z,68
2016-02-11T07:23:59.722Z,67.77
2016-02-11T07:24:59.709Z,67.71
2016-02-11T07:25:59.696Z,67.81
2016-02-11T07:26:59.699Z,67.81
2016-02-11T07:27:59.701Z,67.81
2016-02-11T07:28:59.703Z,67.62
2016-02-11T07:29:59.691Z,67.9
2016-02-11T07:30:59.693Z,67.33
2016-02-11T07:31:59.681Z,67.43
2016-02-11T07:32:59.684Z,67.33
2016-02-11T07:33:59.671Z,67.71
2016-02-11T07:34:59.673Z,67.52
2016-02-11T07:35:59.676Z,67.24
2016-02-11T07:36:59.664Z,67.24
2016-02-11T07:37:59.666Z,67.05
2016-02-11T07:38:59.653Z,67.52
2016-02-11T07:39:59.656Z,67.33
2016-02-11T07:40:59.658Z,67.05
2016-02-11T07:41:59.645Z,67.33
2016-02-11T07:42:59.634Z,67.24
2016-02-11T07:43:59.636Z,67.52
2016-02-11T07:44:59.639Z,67.05
2016-02-11T07:45:59.632Z,66.86
2016-02-11T07:46:59.634Z,67.43
2016-02-11T07:47:59.637Z,66.86
2016-02-11T07:48:59.624Z,66.67
2016-02-11T07:49:59.612Z,66.77
2016-02-11T07:50:59.614Z,66.67
2016-02-11T07:51:59.600Z,66.96
2016-02-11T07:52:59.603Z,66.67
2016-02-11T07:53:59.607Z,66.86
2016-02-11T07:54:59.595Z,66.67
2016-02-11T07:55:59.617Z,66.58
2016-02-11T07:56:59.591Z,65.72
2016-02-11T07:57:59.578Z,65.82
2016-02-11T07:58:59.581Z,65.91
2016-02-11T07:59:59.583Z,65.91
2016-02-11T08:00:59.586Z,65.91
2016-02-11T08:01:59.572Z,65.91
2016-02-11T08:02:59.577Z,65.82
2016-02-11T08:03:59.579Z,65.82
2016-02-11T08:04:59.567Z,65.63
2016-02-11T08:05:59.553Z,65.63
2016-02-11T08:06:59.556Z,66.48
2016-02-11T08:07:59.542Z,65.63
2016-02-11T08:08:59.546Z,65.63
2016-02-11T08:09:59.548Z,65.72
2016-02-11T08:10:59.552Z,65.53
2016-02-11T08:11:59.524Z,65.72
2016-02-11T08:12:59.526Z,66.1
2016-02-11T08:13:59.528Z,66.01
2016-02-11T08:14:59.531Z,65.91
2016-02-11T08:15:59.519Z,65.63
2016-02-11T08:16:59.506Z,66.01
2016-02-11T08:17:59.508Z,65.82
2016-02-11T08:18:59.511Z,65.63
2016-02-11T08:19:59.499Z,65.82
2016-02-11T08:20:59.501Z,66.1
2016-02-11T08:21:59.490Z,65.44
2016-02-11T08:22:59.492Z,66.01
2016-02-11T08:23:59.478Z,66.1
2016-02-11T08:24:59.481Z,66.01
2016-02-11T08:25:59.484Z,66.01
2016-02-11T08:26:59.474Z,66.01
2016-02-11T08:27:59.476Z,66.1
2016-02-11T08:28:59.479Z,66.01
2016-02-11T08:29:59.467Z,66.1
2016-02-11T08:30:59.469Z,65.91
2016-02-11T08:31:59.456Z,65.91
2016-02-11T08:32:59.443Z,65.91
2016-02-11T08:33:59.446Z,65.63
2016-02-11T08:34:59.448Z,65.91
2016-02-11T08:35:59.451Z,65.63
2016-02-11T08:36:59.438Z,65.91
2016-02-11T08:37:59.441Z,66.2
2016-02-11T08:38:59.445Z,66.01
2016-02-11T08:39:59.431Z,66.1
2016-02-11T08:40:59.418Z,65.91
2016-02-11T08:41:59.436Z,66.58
2016-02-11T08:42:59.408Z,66.39
2016-02-11T08:43:59.411Z,66.1
2016-02-11T08:44:59.414Z,66.01
2016-02-11T08:45:59.400Z,66.39
2016-02-11T08:46:59.402Z,65.91
2016-02-11T08:47:59.405Z,65.53
2016-02-11T08:48:59.424Z,66.2
2016-02-11T08:49:59.396Z,66.2
2016-02-11T08:50:59.414Z,66.67
2016-02-11T08:51:59.369Z,66.29
2016-02-11T08:52:59.388Z,66.2
2016-02-11T08:53:59.375Z,66.2
2016-02-11T08:54:59.377Z,66.01
2016-02-11T08:55:59.380Z,66.1
2016-02-11T08:56:59.369Z,66.2
2016-02-11T08:57:59.362Z,66.2
2016-02-11T08:58:59.818Z,66.1
2016-02-11T08:59:59.743Z,66.48
2016-02-11T09:00:59.480Z,65.72
2016-02-11T09:01:59.343Z,66.29
2016-02-11T09:02:59.518Z,66.48
2016-02-11T09:03:59.379Z,66.29
2016-02-11T09:04:59.446Z,65.53
2016-02-11T09:05:59.464Z,65.53
2016-02-11T09:06:59.483Z,66.1
2016-02-11T09:07:59.688Z,65.72
2016-02-11T09:08:59.441Z,65.82
2016-02-11T09:09:59.303Z,65.16
2016-02-11T09:10:59.306Z,65.16
2016-02-11T09:11:59.308Z,64.59
2016-02-11T09:12:59.390Z,64.78
2016-02-11T09:13:59.299Z,64.59
2016-02-11T09:14:59.303Z,65.06
2016-02-11T09:15:59.290Z,64.87
2016-02-11T09:16:59.276Z,65.06
2016-02-11T09:17:59.295Z,64.68
2016-02-11T09:18:59.282Z,64.11
2016-02-11T09:19:58.800Z,64.3
2016-02-11T09:20:59.479Z,63.82
2016-02-11T09:21:59.404Z,64.01
2016-02-11T09:22:59.438Z,63.82
2016-02-11T09:23:59.393Z,63.07
2016-02-11T09:24:59.412Z,61.65
2016-02-11T09:25:59.476Z,61.27
2016-02-11T09:26:59.386Z,61.46
2016-02-11T09:27:59.388Z,60.98
2016-02-11T09:28:59.469Z,61.27
2016-02-11T09:29:59.521Z,61.17
2016-02-11T09:30:59.470Z,61.46
2016-02-11T09:31:59.409Z,61.46
2016-02-11T09:32:59.288Z,61.27
2016-02-11T09:33:59.432Z,61.36
2016-02-11T09:34:59.277Z,61.55
2016-02-11T09:35:59.312Z,61.17
2016-02-11T09:36:59.407Z,61.74
2016-02-11T09:37:59.316Z,61.55
2016-02-11T09:38:59.398Z,61.55
2016-02-11T09:39:59.306Z,61.83
2016-02-11T09:40:59.403Z,62.12
2016-02-11T09:41:59.328Z,61.17
2016-02-11T09:42:59.798Z,60.44
2016-02-11T09:43:59.348Z,60.73
2016-02-11T09:44:59.351Z,61.11
2016-02-11T09:45:59.338Z,61.39
2016-02-11T09:46:59.405Z,60.82
2016-02-11T09:47:59.361Z,60.73
2016-02-11T09:48:58.660Z,61.01
2016-02-11T09:49:59.398Z,60.92
2016-02-11T09:50:59.401Z,61.2
2016-02-11T09:51:59.389Z,61.01
2016-02-11T09:52:59.422Z,61.11
2016-02-11T09:53:59.363Z,61.01
2016-02-11T09:54:59.396Z,61.39
2016-02-11T09:55:59.243Z,61.11
2016-02-11T09:56:59.339Z,61.39
2016-02-11T09:57:59.358Z,61.33
2016-02-11T09:58:59.314Z,61.52
2016-02-11T09:59:59.207Z,59.91
2016-02-11T10:00:59.352Z,60.95
2016-02-11T10:01:59.370Z,59.81
2016-02-11T10:02:59.357Z,59.81
2016-02-11T10:03:59.235Z,59.05
2016-02-11T10:04:59.629Z,59.91
2016-02-11T10:05:59.193Z,60
2016-02-11T10:06:59.259Z,59.14
2016-02-11T10:07:59.198Z,58.95
2016-02-11T10:08:59.249Z,57.34
2016-02-11T10:09:59.189Z,57.53
2016-02-11T10:10:59.285Z,58
2016-02-11T10:11:59.226Z,58
2016-02-11T10:12:59.244Z,58.22
2016-02-11T10:13:59.309Z,56.32
2016-02-11T10:14:59.328Z,55.28
2016-02-11T10:15:59.206Z,56.49
2016-02-11T10:16:59.178Z,55.94
2016-02-11T10:17:59.415Z,54.8
2016-02-11T10:18:59.354Z,55.91
2016-02-11T10:19:59.169Z,54.8
2016-02-11T10:20:59.204Z,55.76
2016-02-11T10:21:59.112Z,55.28
2016-02-11T10:22:59.225Z,56.04
2016-02-11T10:23:59.243Z,55.94
2016-02-11T10:24:59.370Z,55.28
2016-02-11T10:25:59.280Z,54.99
2016-02-11T10:26:59.298Z,55.09
2016-02-11T10:27:59.332Z,55.85
2016-02-11T10:28:59.163Z,55.37
2016-02-11T10:29:59.259Z,54.71
2016-02-11T10:30:59.247Z,54.9
2016-02-11T10:31:59.250Z,55.57
2016-02-11T10:32:59.395Z,55.37
2016-02-11T10:33:59.116Z,54.99
2016-02-11T10:34:59.260Z,55.09
2016-02-11T10:35:59.342Z,55.18
2016-02-11T10:36:59.095Z,54.8
2016-02-11T10:37:59.425Z,54.43
2016-02-11T10:38:59.319Z,54.71
2016-02-11T10:39:59.306Z,54.9
2016-02-11T10:40:59.262Z,54.9
2016-02-11T10:41:59.343Z,55.37
2016-02-11T10:42:59.205Z,54.99
2016-02-11T10:43:59.177Z,54.24
2016-02-11T10:44:59.257Z,54.24
2016-02-11T10:45:59.260Z,54.71
2016-02-11T10:46:59.248Z,54.43
2016-02-11T10:47:59.265Z,54.33
2016-02-11T10:48:59.253Z,54.33
2016-02-11T10:49:59.396Z,54.52
2016-02-11T10:50:59.071Z,54.33
2016-02-11T10:51:58.918Z,55.02
2016-02-11T10:52:59.078Z,54.74
2016-02-11T10:53:59.082Z,54.93
2016-02-11T10:54:59.069Z,54.74
2016-02-11T10:55:59.087Z,54.55
2016-02-11T10:56:59.121Z,53.59
2016-02-11T10:57:59.079Z,53.31
2016-02-11T10:58:59.082Z,53.5
2016-02-11T10:59:59.085Z,52.55
2016-02-11T11:00:59.181Z,52.17
2016-02-11T11:01:59.058Z,52.84
2016-02-11T11:02:59.080Z,52.36
2016-02-11T11:03:59.066Z,52.84
2016-02-11T11:04:59.069Z,52.45
2016-02-11T11:05:59.072Z,52.93
2016-02-11T11:06:59.262Z,52.64
2016-02-11T11:07:59.062Z,52.45
2016-02-11T11:08:59.127Z,52.36
2016-02-11T11:09:59.098Z,52.17
2016-02-11T11:10:59.085Z,51.98
2016-02-11T11:11:59.104Z,52.08
2016-02-11T11:12:59.169Z,51.79
2016-02-11T11:13:59.125Z,50.93
2016-02-11T11:14:59.065Z,52.17
2016-02-11T11:15:59.067Z,52.26
2016-02-11T11:16:59.087Z,51.79
2016-02-11T11:17:59.090Z,52.17
2016-02-11T11:18:59.232Z,51.91
2016-02-11T11:19:59.079Z,51.15
2016-02-11T11:20:59.082Z,51.98
2016-02-11T11:21:59.069Z,51.62
2016-02-11T11:22:59.446Z,50.77
2016-02-11T11:23:59.152Z,50.48
2016-02-11T11:24:59.155Z,50.1
2016-02-11T11:25:59.221Z,50.2
2016-02-11T11:26:59.126Z,49.7
2016-02-11T11:27:59.364Z,50.2
2016-02-11T11:28:59.413Z,50.46
2016-02-11T11:29:59.087Z,49.91
2016-02-11T11:30:59.294Z,50.08
2016-02-11T11:31:59.186Z,50.27
2016-02-11T11:32:59.175Z,49.89
2016-02-11T11:33:59.098Z,50.27
2016-02-11T11:34:59.082Z,50.08
2016-02-11T11:35:59.148Z,48.75
2016-02-11T11:36:59.088Z,49.89
2016-02-11T11:37:59.543Z,49.7
2016-02-11T11:38:59.078Z,49.13
2016-02-11T11:39:59.111Z,49.6
2016-02-11T11:40:59.349Z,49.7
2016-02-11T11:41:59.382Z,50.1
2016-02-11T11:42:59.166Z,50.2
2016-02-11T11:43:59.201Z,50.29
2016-02-11T11:44:59.126Z,50.48
2016-02-11T11:45:59.160Z,49.15
2016-02-11T11:46:59.225Z,48.21
2016-02-11T11:47:59.088Z,48.21
2016-02-11T11:48:59.090Z,49.35
2016-02-11T11:49:59.093Z,48.11
2016-02-11T11:50:59.605Z,47.16
2016-02-11T11:51:59.109Z,48.11
2016-02-11T11:52:58.596Z,48.3
2016-02-11T11:53:59.119Z,49.06
2016-02-11T11:54:59.090Z,48.68
2016-02-11T11:55:59.093Z,48.96
2016-02-11T11:56:59.077Z,49.44
2016-02-11T11:57:59.090Z,48.68
2016-02-11T11:58:59.112Z,48.96
2016-02-11T12:00:59.108Z,48.01
2016-02-11T12:01:59.127Z,48.3
2016-02-11T12:02:59.192Z,48.11
2016-02-11T12:03:59.351Z,48.49
2016-02-11T12:04:59.353Z,47.61
2016-02-11T12:05:59.278Z,48.46
2016-02-11T12:06:59.311Z,47.99
2016-02-11T12:07:59.330Z,49.04
2016-02-11T12:08:59.239Z,49.7
2016-02-11T12:09:59.258Z,49.98
2016-02-11T12:10:59.339Z,51.12
2016-02-11T12:11:59.185Z,50.93
2016-02-11T12:12:59.203Z,51.22
2016-02-11T12:13:59.221Z,51.7
2016-02-11T12:14:59.255Z,51.79
2016-02-11T12:15:59.274Z,51.89
2016-02-11T12:16:59.277Z,52.17
2016-02-11T12:17:59.327Z,52.84
2016-02-11T12:18:59.173Z,52.74
2016-02-11T12:19:59.691Z,52.74
2016-02-11T12:20:59.131Z,52.64
2016-02-11T12:21:59.321Z,52.91
2016-02-11T12:22:59.169Z,53.66
2016-02-11T12:23:59.220Z,53.76
2016-02-11T12:24:59.206Z,53.76
2016-02-11T12:25:59.287Z,54.05
2016-02-11T12:26:59.070Z,54.71
2016-02-11T12:27:59.091Z,54.43
2016-02-11T12:28:59.111Z,54.71
2016-02-11T12:29:59.098Z,55.18
2016-02-11T12:30:59.100Z,55.28
2016-02-11T12:31:59.093Z,55.09
2016-02-11T12:32:59.096Z,54.71
2016-02-11T12:33:59.099Z,54.52
2016-02-11T12:34:59.086Z,54.43
2016-02-11T12:35:59.089Z,54.24
2016-02-11T12:36:59.093Z,54.52
2016-02-11T12:37:59.096Z,54.52
2016-02-11T12:38:59.083Z,54.93
2016-02-11T12:39:59.102Z,54.93
2016-02-11T12:40:59.088Z,54.07
2016-02-11T12:41:59.091Z,53.69
2016-02-11T12:42:59.078Z,53.41
2016-02-11T12:43:59.112Z,53.78
2016-02-11T12:44:59.099Z,53.41
2016-02-11T12:45:59.086Z,53.69
2016-02-11T12:46:59.089Z,53.5
2016-02-11T12:47:59.092Z,53.88
2016-02-11T12:48:59.298Z,53.41
2016-02-11T12:49:59.083Z,53.88
2016-02-11T12:50:59.085Z,54.17
2016-02-11T12:51:59.088Z,54.45
2016-02-11T12:52:59.090Z,53.69
2016-02-11T12:53:59.094Z,53.78
2016-02-11T12:54:59.096Z,53.78
2016-02-11T12:55:59.099Z,53.41